sensor_id;sensor_type;location;lat;lon;timestamp;P1;durP1;ratioP1;P2;durP2;ratioP2
8909;SDS011;4490;49.072;8.804;2022-11-15T00:01:44;5.23;;;4.00;;
8909;SDS011;4490;49.072;8.804;2022-11-15T00:04:10;5.77;;;3.53;;
8909;SDS011;4490;49.072;8.804;2022-11-15T00:06:35;4.87;;;3.87;;
8909;SDS011;4490;49.072;8.804;2022-11-15T00:09:01;6.57;;;4.00;;
8909;SDS011;4490;49.072;8.804;2022-11-15T00:11:27;5.83;;;4.13;;
8909;SDS011;4490;49.072;8.804;2022-11-15T00:13:57;5.07;;;4.03;;
8909;SDS011;4490;49.072;8.804;2022-11-15T00:16:23;6.30;;;4.33;;
8909;SDS011;4490;49.072;8.804;2022-11-15T00:18:49;6.47;;;3.73;;
8909;SDS011;4490;49.072;8.804;2022-11-15T00:21:15;5.27;;;4.23;;
8909;SDS011;4490;49.072;8.804;2022-11-15T00:23:42;6.30;;;4.40;;
8909;SDS011;4490;49.072;8.804;2022-11-15T00:26:11;5.50;;;4.37;;
8909;SDS011;4490;49.072;8.804;2022-11-15T00:28:38;4.30;;;3.70;;
8909;SDS011;4490;49.072;8.804;2022-11-15T00:31:05;5.03;;;3.83;;
8909;SDS011;4490;49.072;8.804;2022-11-15T00:33:32;4.30;;;3.90;;
8909;SDS011;4490;49.072;8.804;2022-11-15T00:35:59;4.50;;;3.57;;
8909;SDS011;4490;49.072;8.804;2022-11-15T00:38:29;5.40;;;3.60;;
8909;SDS011;4490;49.072;8.804;2022-11-15T00:40:56;8.87;;;4.30;;
8909;SDS011;4490;49.072;8.804;2022-11-15T00:43:22;3.90;;;3.60;;
8909;SDS011;4490;49.072;8.804;2022-11-15T00:45:47;3.97;;;3.33;;
8909;SDS011;4490;49.072;8.804;2022-11-15T00:48:13;3.80;;;3.40;;
8909;SDS011;4490;49.072;8.804;2022-11-15T00:50:39;5.10;;;3.87;;
8909;SDS011;4490;49.072;8.804;2022-11-15T00:53:04;3.80;;;3.50;;
8909;SDS011;4490;49.072;8.804;2022-11-15T00:55:30;4.37;;;3.53;;
8909;SDS011;4490;49.072;8.804;2022-11-15T00:57:56;6.17;;;4.13;;
8909;SDS011;4490;49.072;8.804;2022-11-15T01:00:21;5.13;;;3.90;;
8909;SDS011;4490;49.072;8.804;2022-11-15T01:02:47;4.13;;;3.60;;
8909;SDS011;4490;49.072;8.804;2022-11-15T01:05:13;5.73;;;3.70;;
8909;SDS011;4490;49.072;8.804;2022-11-15T01:07:38;5.07;;;3.60;;
8909;SDS011;4490;49.072;8.804;2022-11-15T01:10:04;4.27;;;3.30;;
8909;SDS011;4490;49.072;8.804;2022-11-15T01:12:30;4.33;;;3.13;;
8909;SDS011;4490;49.072;8.804;2022-11-15T01:14:56;6.00;;;3.70;;
8909;SDS011;4490;49.072;8.804;2022-11-15T01:17:22;5.50;;;3.70;;
8909;SDS011;4490;49.072;8.804;2022-11-15T01:19:48;3.80;;;3.37;;
8909;SDS011;4490;49.072;8.804;2022-11-15T01:22:14;5.47;;;3.40;;
8909;SDS011;4490;49.072;8.804;2022-11-15T01:24:40;4.43;;;3.73;;
8909;SDS011;4490;49.072;8.804;2022-11-15T01:27:05;6.30;;;3.80;;
8909;SDS011;4490;49.072;8.804;2022-11-15T01:29:31;5.27;;;4.00;;
8909;SDS011;4490;49.072;8.804;2022-11-15T01:31:57;6.67;;;3.97;;
8909;SDS011;4490;49.072;8.804;2022-11-15T01:34:23;4.00;;;3.40;;
8909;SDS011;4490;49.072;8.804;2022-11-15T01:36:48;4.03;;;3.30;;
8909;SDS011;4490;49.072;8.804;2022-11-15T01:39:14;5.53;;;3.80;;
8909;SDS011;4490;49.072;8.804;2022-11-15T01:41:40;5.10;;;3.67;;
8909;SDS011;4490;49.072;8.804;2022-11-15T01:46:53;4.07;;;3.30;;
8909;SDS011;4490;49.072;8.804;2022-11-15T01:49:19;4.10;;;3.37;;
8909;SDS011;4490;49.072;8.804;2022-11-15T01:51:47;6.50;;;3.57;;
8909;SDS011;4490;49.072;8.804;2022-11-15T01:54:14;7.20;;;3.70;;
8909;SDS011;4490;49.072;8.804;2022-11-15T01:56:46;4.80;;;3.50;;
8909;SDS011;4490;49.072;8.804;2022-11-15T01:59:15;4.70;;;3.63;;
8909;SDS011;4490;49.072;8.804;2022-11-15T02:01:41;7.40;;;3.60;;
8909;SDS011;4490;49.072;8.804;2022-11-15T02:04:12;6.53;;;3.50;;
8909;SDS011;4490;49.072;8.804;2022-11-15T02:06:41;4.87;;;3.80;;
8909;SDS011;4490;49.072;8.804;2022-11-15T02:09:07;4.17;;;3.40;;
8909;SDS011;4490;49.072;8.804;2022-11-15T02:11:33;4.47;;;3.50;;
8909;SDS011;4490;49.072;8.804;2022-11-15T02:13:59;3.70;;;3.40;;
8909;SDS011;4490;49.072;8.804;2022-11-15T02:30:45;6.40;;;3.70;;
8909;SDS011;4490;49.072;8.804;2022-11-15T02:33:11;4.30;;;3.27;;
8909;SDS011;4490;49.072;8.804;2022-11-15T02:36:05;4.40;;;3.50;;
8909;SDS011;4490;49.072;8.804;2022-11-15T02:41:24;4.70;;;2.97;;
8909;SDS011;4490;49.072;8.804;2022-11-15T02:46:45;5.13;;;3.37;;
8909;SDS011;4490;49.072;8.804;2022-11-15T02:49:34;3.37;;;3.07;;
8909;SDS011;4490;49.072;8.804;2022-11-15T02:52:02;7.70;;;3.03;;
8909;SDS011;4490;49.072;8.804;2022-11-15T02:54:29;3.67;;;2.90;;
8909;SDS011;4490;49.072;8.804;2022-11-15T03:09:58;4.70;;;3.20;;
8909;SDS011;4490;49.072;8.804;2022-11-15T03:15:32;5.77;;;3.63;;
8909;SDS011;4490;49.072;8.804;2022-11-15T03:18:11;3.23;;;2.93;;
8909;SDS011;4490;49.072;8.804;2022-11-15T03:20:46;3.43;;;2.87;;
8909;SDS011;4490;49.072;8.804;2022-11-15T03:23:14;4.00;;;2.93;;
8909;SDS011;4490;49.072;8.804;2022-11-15T03:25:47;3.77;;;3.30;;
8909;SDS011;4490;49.072;8.804;2022-11-15T03:28:20;4.03;;;3.07;;
8909;SDS011;4490;49.072;8.804;2022-11-15T03:30:49;4.77;;;3.10;;
8909;SDS011;4490;49.072;8.804;2022-11-15T03:33:15;5.73;;;3.17;;
8909;SDS011;4490;49.072;8.804;2022-11-15T03:35:42;4.17;;;3.10;;
8909;SDS011;4490;49.072;8.804;2022-11-15T03:38:17;4.10;;;3.03;;
8909;SDS011;4490;49.072;8.804;2022-11-15T03:40:53;4.50;;;3.07;;
8909;SDS011;4490;49.072;8.804;2022-11-15T03:46:04;4.80;;;3.37;;
8909;SDS011;4490;49.072;8.804;2022-11-15T03:48:40;4.80;;;3.47;;
8909;SDS011;4490;49.072;8.804;2022-11-15T03:51:11;3.80;;;3.40;;
8909;SDS011;4490;49.072;8.804;2022-11-15T03:53:37;3.77;;;3.03;;
8909;SDS011;4490;49.072;8.804;2022-11-15T03:56:03;3.63;;;3.30;;
8909;SDS011;4490;49.072;8.804;2022-11-15T03:58:29;3.83;;;3.10;;
8909;SDS011;4490;49.072;8.804;2022-11-15T04:00:54;4.60;;;3.00;;
8909;SDS011;4490;49.072;8.804;2022-11-15T04:03:20;3.57;;;3.07;;
8909;SDS011;4490;49.072;8.804;2022-11-15T04:05:46;3.77;;;3.17;;
8909;SDS011;4490;49.072;8.804;2022-11-15T04:08:11;3.93;;;2.80;;
8909;SDS011;4490;49.072;8.804;2022-11-15T04:10:37;3.70;;;3.30;;
8909;SDS011;4490;49.072;8.804;2022-11-15T04:13:02;5.33;;;3.07;;
8909;SDS011;4490;49.072;8.804;2022-11-15T04:15:28;3.97;;;3.07;;
8909;SDS011;4490;49.072;8.804;2022-11-15T04:17:55;4.00;;;3.00;;
8909;SDS011;4490;49.072;8.804;2022-11-15T04:23:09;4.57;;;3.40;;
8909;SDS011;4490;49.072;8.804;2022-11-15T04:25:54;3.87;;;3.00;;
8909;SDS011;4490;49.072;8.804;2022-11-15T04:28:22;4.83;;;2.90;;
8909;SDS011;4490;49.072;8.804;2022-11-15T04:30:48;6.07;;;3.30;;
8909;SDS011;4490;49.072;8.804;2022-11-15T04:33:14;5.17;;;3.40;;
8909;SDS011;4490;49.072;8.804;2022-11-15T04:35:40;4.13;;;2.60;;
8909;SDS011;4490;49.072;8.804;2022-11-15T04:38:07;4.57;;;2.70;;
8909;SDS011;4490;49.072;8.804;2022-11-15T04:40:34;5.00;;;3.13;;
8909;SDS011;4490;49.072;8.804;2022-11-15T04:43:00;4.17;;;2.83;;
8909;SDS011;4490;49.072;8.804;2022-11-15T04:45:26;7.30;;;2.83;;
8909;SDS011;4490;49.072;8.804;2022-11-15T04:47:51;2.70;;;2.50;;
8909;SDS011;4490;49.072;8.804;2022-11-15T04:50:17;3.70;;;2.60;;
8909;SDS011;4490;49.072;8.804;2022-11-15T04:52:43;4.30;;;2.97;;
8909;SDS011;4490;49.072;8.804;2022-11-15T04:55:15;5.40;;;3.83;;
8909;SDS011;4490;49.072;8.804;2022-11-15T04:57:41;4.20;;;3.40;;
8909;SDS011;4490;49.072;8.804;2022-11-15T05:00:10;4.90;;;3.50;;
8909;SDS011;4490;49.072;8.804;2022-11-15T05:02:38;4.23;;;3.73;;
8909;SDS011;4490;49.072;8.804;2022-11-15T05:05:23;6.37;;;3.63;;
8909;SDS011;4490;49.072;8.804;2022-11-15T05:07:49;3.67;;;2.90;;
8909;SDS011;4490;49.072;8.804;2022-11-15T05:10:15;4.03;;;3.00;;
8909;SDS011;4490;49.072;8.804;2022-11-15T05:12:41;3.27;;;2.90;;
8909;SDS011;4490;49.072;8.804;2022-11-15T05:15:07;3.00;;;2.73;;
8909;SDS011;4490;49.072;8.804;2022-11-15T05:17:33;3.67;;;2.60;;
8909;SDS011;4490;49.072;8.804;2022-11-15T05:19:59;3.47;;;2.70;;
8909;SDS011;4490;49.072;8.804;2022-11-15T05:22:24;4.93;;;2.90;;
8909;SDS011;4490;49.072;8.804;2022-11-15T05:24:50;4.67;;;2.87;;
8909;SDS011;4490;49.072;8.804;2022-11-15T05:27:16;2.70;;;2.50;;
8909;SDS011;4490;49.072;8.804;2022-11-15T05:29:41;3.83;;;2.67;;
8909;SDS011;4490;49.072;8.804;2022-11-15T05:32:07;3.47;;;2.80;;
8909;SDS011;4490;49.072;8.804;2022-11-15T05:34:34;3.07;;;2.73;;
8909;SDS011;4490;49.072;8.804;2022-11-15T05:37:00;4.53;;;2.70;;
8909;SDS011;4490;49.072;8.804;2022-11-15T05:39:26;5.03;;;2.80;;
8909;SDS011;4490;49.072;8.804;2022-11-15T05:41:56;3.60;;;2.70;;
8909;SDS011;4490;49.072;8.804;2022-11-15T05:44:44;2.97;;;2.63;;
8909;SDS011;4490;49.072;8.804;2022-11-15T05:47:14;2.97;;;2.57;;
8909;SDS011;4490;49.072;8.804;2022-11-15T05:49:44;3.63;;;2.80;;
8909;SDS011;4490;49.072;8.804;2022-11-15T05:52:12;4.43;;;3.10;;
8909;SDS011;4490;49.072;8.804;2022-11-15T05:54:41;3.03;;;2.60;;
8909;SDS011;4490;49.072;8.804;2022-11-15T05:57:08;7.47;;;3.40;;
8909;SDS011;4490;49.072;8.804;2022-11-15T05:59:33;3.47;;;3.00;;
8909;SDS011;4490;49.072;8.804;2022-11-15T06:02:00;5.80;;;3.20;;
8909;SDS011;4490;49.072;8.804;2022-11-15T06:04:26;3.33;;;2.90;;
8909;SDS011;4490;49.072;8.804;2022-11-15T06:06:51;6.30;;;3.30;;
8909;SDS011;4490;49.072;8.804;2022-11-15T06:09:17;5.63;;;3.50;;
8909;SDS011;4490;49.072;8.804;2022-11-15T06:11:43;7.13;;;3.80;;
8909;SDS011;4490;49.072;8.804;2022-11-15T06:14:08;5.57;;;3.60;;
8909;SDS011;4490;49.072;8.804;2022-11-15T06:16:34;6.23;;;3.67;;
8909;SDS011;4490;49.072;8.804;2022-11-15T06:18:59;5.57;;;3.87;;
8909;SDS011;4490;49.072;8.804;2022-11-15T06:21:25;5.60;;;3.90;;
8909;SDS011;4490;49.072;8.804;2022-11-15T06:23:52;6.50;;;3.73;;
8909;SDS011;4490;49.072;8.804;2022-11-15T06:26:18;5.47;;;3.30;;
8909;SDS011;4490;49.072;8.804;2022-11-15T06:28:44;6.57;;;3.70;;
8909;SDS011;4490;49.072;8.804;2022-11-15T06:31:10;7.23;;;3.93;;
8909;SDS011;4490;49.072;8.804;2022-11-15T06:33:36;4.27;;;3.87;;
8909;SDS011;4490;49.072;8.804;2022-11-15T06:36:04;5.80;;;3.90;;
8909;SDS011;4490;49.072;8.804;2022-11-15T06:38:35;5.87;;;3.90;;
8909;SDS011;4490;49.072;8.804;2022-11-15T06:41:01;5.17;;;4.03;;
8909;SDS011;4490;49.072;8.804;2022-11-15T06:43:28;5.50;;;3.80;;
8909;SDS011;4490;49.072;8.804;2022-11-15T06:45:54;9.03;;;3.80;;
8909;SDS011;4490;49.072;8.804;2022-11-15T06:48:19;5.60;;;3.80;;
8909;SDS011;4490;49.072;8.804;2022-11-15T06:50:58;6.30;;;4.10;;
8909;SDS011;4490;49.072;8.804;2022-11-15T06:53:25;5.43;;;3.80;;
8909;SDS011;4490;49.072;8.804;2022-11-15T06:55:51;4.20;;;3.50;;
8909;SDS011;4490;49.072;8.804;2022-11-15T06:58:17;3.80;;;3.20;;
8909;SDS011;4490;49.072;8.804;2022-11-15T07:00:43;3.80;;;3.40;;
8909;SDS011;4490;49.072;8.804;2022-11-15T07:03:09;5.87;;;3.43;;
8909;SDS011;4490;49.072;8.804;2022-11-15T07:05:35;3.93;;;3.40;;
8909;SDS011;4490;49.072;8.804;2022-11-15T07:08:01;3.60;;;3.17;;
8909;SDS011;4490;49.072;8.804;2022-11-15T07:10:27;5.37;;;3.20;;
8909;SDS011;4490;49.072;8.804;2022-11-15T07:12:53;3.93;;;3.20;;
8909;SDS011;4490;49.072;8.804;2022-11-15T07:15:20;5.03;;;3.30;;
8909;SDS011;4490;49.072;8.804;2022-11-15T07:17:48;4.03;;;2.93;;
8909;SDS011;4490;49.072;8.804;2022-11-15T07:20:14;4.87;;;2.80;;
8909;SDS011;4490;49.072;8.804;2022-11-15T07:22:40;4.70;;;3.20;;
8909;SDS011;4490;49.072;8.804;2022-11-15T07:25:07;4.67;;;3.30;;
8909;SDS011;4490;49.072;8.804;2022-11-15T07:27:33;5.13;;;3.10;;
8909;SDS011;4490;49.072;8.804;2022-11-15T07:29:58;3.37;;;3.00;;
8909;SDS011;4490;49.072;8.804;2022-11-15T07:32:24;3.87;;;3.03;;
8909;SDS011;4490;49.072;8.804;2022-11-15T07:34:50;4.10;;;3.37;;
8909;SDS011;4490;49.072;8.804;2022-11-15T07:37:16;5.07;;;3.27;;
8909;SDS011;4490;49.072;8.804;2022-11-15T07:39:42;4.57;;;2.97;;
8909;SDS011;4490;49.072;8.804;2022-11-15T07:42:08;6.07;;;3.10;;
8909;SDS011;4490;49.072;8.804;2022-11-15T07:44:52;3.37;;;2.80;;
8909;SDS011;4490;49.072;8.804;2022-11-15T07:47:18;3.90;;;3.10;;
8909;SDS011;4490;49.072;8.804;2022-11-15T07:49:43;3.83;;;3.00;;
8909;SDS011;4490;49.072;8.804;2022-11-15T07:52:11;3.63;;;3.00;;
8909;SDS011;4490;49.072;8.804;2022-11-15T07:54:37;6.70;;;3.53;;
8909;SDS011;4490;49.072;8.804;2022-11-15T07:57:03;4.67;;;3.50;;
8909;SDS011;4490;49.072;8.804;2022-11-15T07:59:29;4.47;;;3.30;;
8909;SDS011;4490;49.072;8.804;2022-11-15T08:01:55;6.37;;;3.73;;
8909;SDS011;4490;49.072;8.804;2022-11-15T08:04:20;5.23;;;3.37;;
8909;SDS011;4490;49.072;8.804;2022-11-15T08:06:46;4.23;;;3.20;;
8909;SDS011;4490;49.072;8.804;2022-11-15T08:09:11;4.13;;;3.30;;
8909;SDS011;4490;49.072;8.804;2022-11-15T08:11:37;6.23;;;3.97;;
8909;SDS011;4490;49.072;8.804;2022-11-15T08:14:03;4.07;;;3.37;;
8909;SDS011;4490;49.072;8.804;2022-11-15T08:16:28;5.43;;;3.40;;
8909;SDS011;4490;49.072;8.804;2022-11-15T08:18:54;5.87;;;3.30;;
8909;SDS011;4490;49.072;8.804;2022-11-15T08:21:20;4.63;;;3.43;;
8909;SDS011;4490;49.072;8.804;2022-11-15T08:23:46;4.30;;;3.10;;
8909;SDS011;4490;49.072;8.804;2022-11-15T08:26:12;4.57;;;3.30;;
8909;SDS011;4490;49.072;8.804;2022-11-15T08:28:38;4.80;;;3.47;;
8909;SDS011;4490;49.072;8.804;2022-11-15T08:31:04;5.10;;;3.20;;
8909;SDS011;4490;49.072;8.804;2022-11-15T08:33:30;3.97;;;3.17;;
8909;SDS011;4490;49.072;8.804;2022-11-15T08:35:57;3.40;;;2.90;;
8909;SDS011;4490;49.072;8.804;2022-11-15T08:38:23;3.10;;;2.53;;
8909;SDS011;4490;49.072;8.804;2022-11-15T08:40:50;3.90;;;2.83;;
8909;SDS011;4490;49.072;8.804;2022-11-15T08:43:24;3.53;;;2.57;;
8909;SDS011;4490;49.072;8.804;2022-11-15T08:45:50;4.70;;;2.83;;
8909;SDS011;4490;49.072;8.804;2022-11-15T08:48:15;7.10;;;3.50;;
8909;SDS011;4490;49.072;8.804;2022-11-15T08:50:41;6.37;;;3.60;;
8909;SDS011;4490;49.072;8.804;2022-11-15T08:53:10;5.37;;;3.73;;
8909;SDS011;4490;49.072;8.804;2022-11-15T08:55:36;6.47;;;3.93;;
8909;SDS011;4490;49.072;8.804;2022-11-15T08:58:03;5.60;;;4.00;;
8909;SDS011;4490;49.072;8.804;2022-11-15T09:00:29;5.13;;;3.97;;
8909;SDS011;4490;49.072;8.804;2022-11-15T09:02:55;5.70;;;3.90;;
8909;SDS011;4490;49.072;8.804;2022-11-15T09:05:20;5.13;;;4.07;;
8909;SDS011;4490;49.072;8.804;2022-11-15T09:07:46;4.17;;;3.77;;
8909;SDS011;4490;49.072;8.804;2022-11-15T09:10:12;6.07;;;4.43;;
8909;SDS011;4490;49.072;8.804;2022-11-15T09:12:37;5.73;;;4.47;;
8909;SDS011;4490;49.072;8.804;2022-11-15T09:15:04;7.67;;;5.17;;
8909;SDS011;4490;49.072;8.804;2022-11-15T09:17:30;6.37;;;4.67;;
8909;SDS011;4490;49.072;8.804;2022-11-15T09:19:56;6.43;;;4.30;;
8909;SDS011;4490;49.072;8.804;2022-11-15T09:22:21;6.20;;;4.93;;
8909;SDS011;4490;49.072;8.804;2022-11-15T09:24:47;10.73;;;4.93;;
8909;SDS011;4490;49.072;8.804;2022-11-15T09:27:12;8.30;;;5.17;;
8909;SDS011;4490;49.072;8.804;2022-11-15T09:29:38;6.17;;;4.50;;
8909;SDS011;4490;49.072;8.804;2022-11-15T09:32:04;6.40;;;4.30;;
8909;SDS011;4490;49.072;8.804;2022-11-15T09:34:30;4.93;;;3.73;;
8909;SDS011;4490;49.072;8.804;2022-11-15T09:36:55;5.60;;;3.80;;
8909;SDS011;4490;49.072;8.804;2022-11-15T09:39:21;6.23;;;3.20;;
8909;SDS011;4490;49.072;8.804;2022-11-15T09:47:04;3.73;;;3.03;;
8909;SDS011;4490;49.072;8.804;2022-11-15T09:49:53;3.03;;;2.77;;
8909;SDS011;4490;49.072;8.804;2022-11-15T09:52:23;5.43;;;2.80;;
8909;SDS011;4490;49.072;8.804;2022-11-15T09:54:50;2.83;;;2.50;;
8909;SDS011;4490;49.072;8.804;2022-11-15T09:57:38;5.13;;;2.27;;
8909;SDS011;4490;49.072;8.804;2022-11-15T10:00:28;3.63;;;2.57;;
8909;SDS011;4490;49.072;8.804;2022-11-15T10:05:43;4.00;;;2.60;;
8909;SDS011;4490;49.072;8.804;2022-11-15T10:10:45;2.57;;;2.33;;
8909;SDS011;4490;49.072;8.804;2022-11-15T10:13:14;3.67;;;2.43;;
8909;SDS011;4490;49.072;8.804;2022-11-15T10:15:46;3.33;;;2.77;;
8909;SDS011;4490;49.072;8.804;2022-11-15T10:18:17;3.10;;;2.80;;
8909;SDS011;4490;49.072;8.804;2022-11-15T10:21:37;5.80;;;3.40;;
8909;SDS011;4490;49.072;8.804;2022-11-15T10:23:48;4.43;;;3.47;;
8909;SDS011;4490;49.072;8.804;2022-11-15T10:26:16;5.90;;;3.60;;
8909;SDS011;4490;49.072;8.804;2022-11-15T10:28:42;3.90;;;3.50;;
8909;SDS011;4490;49.072;8.804;2022-11-15T10:31:21;6.73;;;3.80;;
8909;SDS011;4490;49.072;8.804;2022-11-15T10:33:47;4.30;;;3.00;;
8909;SDS011;4490;49.072;8.804;2022-11-15T10:41:13;4.97;;;3.83;;
8909;SDS011;4490;49.072;8.804;2022-11-15T10:43:41;7.33;;;4.37;;
8909;SDS011;4490;49.072;8.804;2022-11-15T10:46:20;7.00;;;4.43;;
8909;SDS011;4490;49.072;8.804;2022-11-15T10:48:47;5.73;;;4.20;;
8909;SDS011;4490;49.072;8.804;2022-11-15T10:51:20;4.33;;;3.67;;
8909;SDS011;4490;49.072;8.804;2022-11-15T10:53:53;6.30;;;3.77;;
8909;SDS011;4490;49.072;8.804;2022-11-15T10:56:22;5.13;;;3.80;;
8909;SDS011;4490;49.072;8.804;2022-11-15T10:58:52;5.73;;;3.83;;
8909;SDS011;4490;49.072;8.804;2022-11-15T11:01:24;5.80;;;4.50;;
8909;SDS011;4490;49.072;8.804;2022-11-15T11:04:01;6.50;;;4.77;;
8909;SDS011;4490;49.072;8.804;2022-11-15T11:06:47;5.67;;;4.87;;
8909;SDS011;4490;49.072;8.804;2022-11-15T11:12:00;8.43;;;6.00;;
8909;SDS011;4490;49.072;8.804;2022-11-15T11:14:31;6.97;;;5.63;;
8909;SDS011;4490;49.072;8.804;2022-11-15T11:19:49;7.67;;;5.90;;
8909;SDS011;4490;49.072;8.804;2022-11-15T11:22:55;9.27;;;5.50;;
8909;SDS011;4490;49.072;8.804;2022-11-15T11:25:55;7.63;;;6.40;;
8909;SDS011;4490;49.072;8.804;2022-11-15T11:36:48;6.17;;;4.40;;
8909;SDS011;4490;49.072;8.804;2022-11-15T11:42:07;5.33;;;3.97;;
8909;SDS011;4490;49.072;8.804;2022-11-15T11:47:59;7.50;;;4.13;;
8909;SDS011;4490;49.072;8.804;2022-11-15T11:50:28;5.00;;;4.27;;
8909;SDS011;4490;49.072;8.804;2022-11-15T11:55:28;4.90;;;4.40;;
8909;SDS011;4490;49.072;8.804;2022-11-15T12:00:56;5.97;;;4.10;;
8909;SDS011;4490;49.072;8.804;2022-11-15T12:08:58;5.87;;;4.23;;
8909;SDS011;4490;49.072;8.804;2022-11-15T12:12:04;7.03;;;3.87;;
8909;SDS011;4490;49.072;8.804;2022-11-15T12:14:57;4.37;;;3.70;;
8909;SDS011;4490;49.072;8.804;2022-11-15T12:17:35;4.57;;;3.53;;
8909;SDS011;4490;49.072;8.804;2022-11-15T12:20:04;6.43;;;3.40;;
8909;SDS011;4490;49.072;8.804;2022-11-15T12:22:53;5.30;;;3.40;;
8909;SDS011;4490;49.072;8.804;2022-11-15T12:25:45;3.90;;;3.27;;
8909;SDS011;4490;49.072;8.804;2022-11-15T12:28:25;4.70;;;3.17;;
8909;SDS011;4490;49.072;8.804;2022-11-15T12:31:14;4.37;;;3.47;;
8909;SDS011;4490;49.072;8.804;2022-11-15T12:33:45;5.07;;;3.67;;
8909;SDS011;4490;49.072;8.804;2022-11-15T12:41:30;5.77;;;3.23;;
8909;SDS011;4490;49.072;8.804;2022-11-15T12:43:56;5.30;;;3.70;;
8909;SDS011;4490;49.072;8.804;2022-11-15T12:51:21;6.13;;;3.40;;
8909;SDS011;4490;49.072;8.804;2022-11-15T13:02:22;4.93;;;3.80;;
8909;SDS011;4490;49.072;8.804;2022-11-15T13:04:52;6.17;;;3.90;;
8909;SDS011;4490;49.072;8.804;2022-11-15T13:17:50;6.23;;;3.83;;
8909;SDS011;4490;49.072;8.804;2022-11-15T13:33:19;4.33;;;3.23;;
8909;SDS011;4490;49.072;8.804;2022-11-15T13:35:51;3.67;;;2.30;;
8909;SDS011;4490;49.072;8.804;2022-11-15T13:38:30;2.63;;;2.43;;
8909;SDS011;4490;49.072;8.804;2022-11-15T13:40:58;3.87;;;2.50;;
8909;SDS011;4490;49.072;8.804;2022-11-15T13:48:40;4.17;;;2.73;;
8909;SDS011;4490;49.072;8.804;2022-11-15T13:51:09;3.87;;;2.90;;
8909;SDS011;4490;49.072;8.804;2022-11-15T13:53:57;3.43;;;3.13;;
8909;SDS011;4490;49.072;8.804;2022-11-15T13:56:48;4.67;;;4.00;;
8909;SDS011;4490;49.072;8.804;2022-11-15T13:59:25;6.07;;;3.43;;
8909;SDS011;4490;49.072;8.804;2022-11-15T14:01:56;6.40;;;4.63;;
8909;SDS011;4490;49.072;8.804;2022-11-15T14:04:26;6.80;;;4.10;;
8909;SDS011;4490;49.072;8.804;2022-11-15T14:06:58;5.93;;;3.80;;
8909;SDS011;4490;49.072;8.804;2022-11-15T14:09:40;7.73;;;4.30;;
8909;SDS011;4490;49.072;8.804;2022-11-15T14:15:00;6.93;;;3.93;;
8909;SDS011;4490;49.072;8.804;2022-11-15T14:17:43;7.83;;;4.00;;
8909;SDS011;4490;49.072;8.804;2022-11-15T14:22:56;6.27;;;4.00;;
8909;SDS011;4490;49.072;8.804;2022-11-15T14:25:41;6.13;;;4.30;;
8909;SDS011;4490;49.072;8.804;2022-11-15T14:30:44;7.67;;;3.97;;
8909;SDS011;4490;49.072;8.804;2022-11-15T14:33:19;8.33;;;4.17;;
8909;SDS011;4490;49.072;8.804;2022-11-15T14:35:57;5.63;;;4.27;;
8909;SDS011;4490;49.072;8.804;2022-11-15T14:38:28;6.30;;;4.43;;
8909;SDS011;4490;49.072;8.804;2022-11-15T14:40:54;6.43;;;4.33;;
8909;SDS011;4490;49.072;8.804;2022-11-15T14:43:20;8.27;;;4.80;;
8909;SDS011;4490;49.072;8.804;2022-11-15T14:45:46;7.23;;;4.30;;
8909;SDS011;4490;49.072;8.804;2022-11-15T14:48:12;7.97;;;4.40;;
8909;SDS011;4490;49.072;8.804;2022-11-15T14:50:37;6.53;;;4.23;;
8909;SDS011;4490;49.072;8.804;2022-11-15T14:53:03;5.83;;;4.00;;
8909;SDS011;4490;49.072;8.804;2022-11-15T14:55:33;9.07;;;4.10;;
8909;SDS011;4490;49.072;8.804;2022-11-15T14:58:04;5.50;;;4.10;;
8909;SDS011;4490;49.072;8.804;2022-11-15T15:00:33;6.70;;;4.23;;
8909;SDS011;4490;49.072;8.804;2022-11-15T15:02:59;9.00;;;4.27;;
8909;SDS011;4490;49.072;8.804;2022-11-15T15:05:27;5.93;;;4.10;;
8909;SDS011;4490;49.072;8.804;2022-11-15T15:07:59;4.73;;;4.17;;
8909;SDS011;4490;49.072;8.804;2022-11-15T15:10:26;6.03;;;4.60;;
8909;SDS011;4490;49.072;8.804;2022-11-15T15:12:55;9.40;;;4.40;;
8909;SDS011;4490;49.072;8.804;2022-11-15T15:15:22;5.03;;;4.07;;
8909;SDS011;4490;49.072;8.804;2022-11-15T15:17:50;3.90;;;3.43;;
8909;SDS011;4490;49.072;8.804;2022-11-15T15:20:16;4.83;;;3.03;;
8909;SDS011;4490;49.072;8.804;2022-11-15T15:22:41;5.90;;;5.17;;
8909;SDS011;4490;49.072;8.804;2022-11-15T15:25:21;8.83;;;8.00;;
8909;SDS011;4490;49.072;8.804;2022-11-15T15:27:50;7.10;;;6.43;;
8909;SDS011;4490;49.072;8.804;2022-11-15T15:30:16;4.00;;;3.60;;
8909;SDS011;4490;49.072;8.804;2022-11-15T15:32:42;4.80;;;4.10;;
8909;SDS011;4490;49.072;8.804;2022-11-15T15:35:10;5.80;;;3.33;;
8909;SDS011;4490;49.072;8.804;2022-11-15T15:37:37;3.50;;;3.20;;
8909;SDS011;4490;49.072;8.804;2022-11-15T15:40:02;7.10;;;4.50;;
8909;SDS011;4490;49.072;8.804;2022-11-15T15:42:28;3.50;;;2.87;;
8909;SDS011;4490;49.072;8.804;2022-11-15T15:44:54;5.30;;;3.00;;
8909;SDS011;4490;49.072;8.804;2022-11-15T15:47:21;5.93;;;2.80;;
8909;SDS011;4490;49.072;8.804;2022-11-15T15:49:48;4.73;;;3.63;;
8909;SDS011;4490;49.072;8.804;2022-11-15T15:52:15;6.70;;;4.60;;
8909;SDS011;4490;49.072;8.804;2022-11-15T15:54:41;10.07;;;4.07;;
8909;SDS011;4490;49.072;8.804;2022-11-15T15:57:07;5.00;;;3.27;;
8909;SDS011;4490;49.072;8.804;2022-11-15T15:59:35;5.07;;;3.17;;
8909;SDS011;4490;49.072;8.804;2022-11-15T16:02:01;5.00;;;3.50;;
8909;SDS011;4490;49.072;8.804;2022-11-15T16:04:26;5.33;;;3.40;;
8909;SDS011;4490;49.072;8.804;2022-11-15T16:06:54;7.00;;;3.60;;
8909;SDS011;4490;49.072;8.804;2022-11-15T16:09:23;5.07;;;3.10;;
8909;SDS011;4490;49.072;8.804;2022-11-15T16:12:09;7.27;;;3.10;;
8909;SDS011;4490;49.072;8.804;2022-11-15T16:14:35;5.13;;;3.07;;
8909;SDS011;4490;49.072;8.804;2022-11-15T16:17:01;5.20;;;3.03;;
8909;SDS011;4490;49.072;8.804;2022-11-15T16:19:27;4.93;;;3.40;;
8909;SDS011;4490;49.072;8.804;2022-11-15T16:21:52;7.40;;;5.03;;
8909;SDS011;4490;49.072;8.804;2022-11-15T16:24:18;13.50;;;9.37;;
8909;SDS011;4490;49.072;8.804;2022-11-15T16:26:44;3.73;;;2.90;;
8909;SDS011;4490;49.072;8.804;2022-11-15T16:29:11;5.27;;;2.83;;
8909;SDS011;4490;49.072;8.804;2022-11-15T16:31:37;4.93;;;2.90;;
8909;SDS011;4490;49.072;8.804;2022-11-15T16:34:03;3.77;;;2.90;;
8909;SDS011;4490;49.072;8.804;2022-11-15T16:36:29;5.13;;;2.97;;
8909;SDS011;4490;49.072;8.804;2022-11-15T16:38:57;3.77;;;3.07;;
8909;SDS011;4490;49.072;8.804;2022-11-15T16:41:23;3.33;;;2.90;;
8909;SDS011;4490;49.072;8.804;2022-11-15T16:43:50;4.23;;;2.90;;
8909;SDS011;4490;49.072;8.804;2022-11-15T16:46:20;3.40;;;2.57;;
8909;SDS011;4490;49.072;8.804;2022-11-15T16:48:47;5.43;;;2.80;;
8909;SDS011;4490;49.072;8.804;2022-11-15T16:51:13;3.87;;;2.93;;
8909;SDS011;4490;49.072;8.804;2022-11-15T16:53:39;6.13;;;3.60;;
8909;SDS011;4490;49.072;8.804;2022-11-15T16:58:51;5.37;;;3.20;;
8909;SDS011;4490;49.072;8.804;2022-11-15T17:01:32;5.40;;;3.07;;
8909;SDS011;4490;49.072;8.804;2022-11-15T17:04:00;5.57;;;2.90;;
8909;SDS011;4490;49.072;8.804;2022-11-15T17:06:40;4.40;;;3.20;;
8909;SDS011;4490;49.072;8.804;2022-11-15T17:09:11;2.90;;;2.60;;
8909;SDS011;4490;49.072;8.804;2022-11-15T17:11:44;3.93;;;2.77;;
8909;SDS011;4490;49.072;8.804;2022-11-15T17:14:11;4.87;;;3.03;;
8909;SDS011;4490;49.072;8.804;2022-11-15T17:16:37;4.43;;;3.00;;
8909;SDS011;4490;49.072;8.804;2022-11-15T17:19:10;3.13;;;2.53;;
8909;SDS011;4490;49.072;8.804;2022-11-15T17:21:38;4.53;;;3.07;;
8909;SDS011;4490;49.072;8.804;2022-11-15T17:24:04;5.00;;;2.37;;
8909;SDS011;4490;49.072;8.804;2022-11-15T17:26:29;4.40;;;2.80;;
8909;SDS011;4490;49.072;8.804;2022-11-15T17:28:55;5.70;;;2.83;;
8909;SDS011;4490;49.072;8.804;2022-11-15T17:31:21;3.67;;;2.73;;
8909;SDS011;4490;49.072;8.804;2022-11-15T17:33:47;3.90;;;2.90;;
8909;SDS011;4490;49.072;8.804;2022-11-15T17:36:13;6.27;;;3.13;;
8909;SDS011;4490;49.072;8.804;2022-11-15T17:38:41;4.80;;;2.83;;
8909;SDS011;4490;49.072;8.804;2022-11-15T17:41:13;4.60;;;2.90;;
8909;SDS011;4490;49.072;8.804;2022-11-15T17:43:40;4.73;;;3.10;;
8909;SDS011;4490;49.072;8.804;2022-11-15T17:46:07;5.00;;;3.10;;
8909;SDS011;4490;49.072;8.804;2022-11-15T17:48:36;7.27;;;4.33;;
8909;SDS011;4490;49.072;8.804;2022-11-15T17:51:03;7.53;;;5.07;;
8909;SDS011;4490;49.072;8.804;2022-11-15T17:53:31;7.47;;;4.63;;
8909;SDS011;4490;49.072;8.804;2022-11-15T17:56:08;8.23;;;4.87;;